This is the latest recevied weather packets stored in our database for station/object KD4PMP. If no packets are shown the sender has not sent any weather packets the latest 10 day(s).
| Time | Temp. | Humidity | Pressure | Rain* | Wind** | Luminosity | Snow |
|---|---|---|---|---|---|---|---|
| 1777726821 | 11.67° C | 78% | 1016.5 hPa | 0 mm | - | - | - |
| 1777726191 | 11.11° C | 79% | 1016.6 hPa | 0 mm | - | - | - |
| 1777725621 | 10.56° C | 81% | 1016.6 hPa | 0 mm | - | - | - |
| 1777725021 | 9.44° C | 83% | 1016.5 hPa | 0 mm | - | - | - |
| 1777724420 | 8.89° C | 86% | 1016.4 hPa | 0 mm | - | - | - |
| 1777723820 | 7.78° C | 91% | 1016.2 hPa | 0 mm | - | - | - |
| 1777723219 | 6.67° C | 93% | 1016.1 hPa | 0 mm | - | - | - |
| 1777722619 | 5.56° C | 93% | 1016 hPa | 0 mm | - | - | - |
| 1777722019 | 5° C | 91% | 1015.9 hPa | 0 mm | - | - | - |
| 1777721419 | 5.56° C | 91% | 1015.9 hPa | 0 mm | - | - | - |
| 1777720818 | 5.56° C | 90% | 1015.7 hPa | 0 mm | - | - | - |
| 1777720218 | 5.56° C | 90% | 1015.7 hPa | 0 mm | - | - | - |
| 1777719618 | 5.56° C | 89% | 1015.7 hPa | 0 mm | - | - | - |
| 1777719018 | 5.56° C | 89% | 1015.8 hPa | 0 mm | - | - | - |
| 1777718418 | 5.56° C | 88% | 1015.9 hPa | 0 mm | - | - | - |
| 1777717817 | 5.56° C | 87% | 1015.6 hPa | 0 mm | - | - | - |
| 1777717216 | 6.11° C | 87% | 1015.6 hPa | 0 mm | - | - | - |
| 1777716617 | 6.11° C | 87% | 1015.4 hPa | 0 mm | - | - | - |
| 1777716016 | 6.11° C | 87% | 1015.4 hPa | 0 mm | - | - | - |
| 1777715416 | 6.67° C | 86% | 1015.4 hPa | 0 mm | - | - | - |
| 1777714815 | 6.67° C | 85% | 1015.4 hPa | 0 mm | - | - | - |
| 1777714215 | 6.67° C | 85% | 1015.3 hPa | 0 mm | - | - | - |
| 1777713615 | 7.22° C | 84% | 1015.5 hPa | 0 mm | - | - | - |
| 1777713015 | 7.22° C | 84% | 1015.5 hPa | 0 mm | - | - | - |
| 1777712415 | 7.22° C | 83% | 1015.5 hPa | 0 mm | - | - | - |
* Rain latest hour (hover to see other rain measurements)
** Current wind speed in m/s (hover to see current wind gust speed)